GGGB weather

Gabu Airport
Gabu, Gabu Region, Guinea-Bissau

Public forecast

Using degrees Celsius for public forecast. Weather courtesy of forecast.io.

METAR (pilot weather report)

Closest report is Osvaldo Vieira International Airport, 86.6 nm (160.3 km) WSW. Retrieved 2019/03/25 05:00 UTC (10 minutes ago):

GGOV 250500Z 32004KT CAVOK 20/17 Q1011 NOSIG

TAF (pilot weather forecast)

Closest forecast is Osvaldo Vieira International Airport, 86.6 nm (160.3 km) WSW. Retrieved 2019/03/25 00:09 UTC (5 hours ago):

TAF GGOV 242300Z 2500/2524 30008KT CAVOK